NORTHERN NASSAU  -  Flash Flood Watch Flash Flood Watch     Rip Current Statement Rip Current Statement        NORTHERN QUEENS  -  Flash Flood Watch Flash Flood Watch     Rip Current Statement Rip Current Statement        SOUTHERN NASSAU  -  Flash Flood Watch Flash Flood Watch     Rip Current Statement Rip Current Statement        SOUTHERN QUEENS  -  Flash Flood Watch Flash Flood Watch     Rip Current Statement Rip Current Statement        NORTHEAST SUFFOLK  -  Rip Current Statement Rip Current Statement        NORTHWEST SUFFOLK  -  Rip Current Statement Rip Current Statement        SOUTHEAST SUFFOLK  -  Rip Current Statement Rip Current Statement        SOUTHWEST SUFFOLK  -  Rip Current Statement Rip Current Statement      

Active alerts

Northern Queens
  Details for Northern Queens Flash Flood Watch  +1 additional alert
Southern Queens
  Details for Southern Queens Flash Flood Watch  +1 additional alert
Northern Nassau
  Details for Northern Nassau Flash Flood Watch  +1 additional alert
Southern Nassau
  Details for Southern Nassau Flash Flood Watch  +1 additional alert
Northwest Suffolk
  Details for Northwest Suffolk Rip Current Statement
Southwest Suffolk
  Details for Southwest Suffolk Rip Current Statement
Northeast Suffolk
  Details for Northeast Suffolk Rip Current Statement
Southeast Suffolk
  Details for Southeast Suffolk Rip Current Statement


WXM80 ListenWXM80 Stop

You find our weather info also at:

UK Metoffice

WeatherCloud

Weather Underground

Northeastern Weather Network

AWEKAS

Citizen Weather Observer Program (CWOP)

HAMweather, WeatherForYou, PWS Weather


Weather Underground History page Text

Daily Summary for March 3, 2018 Units:  Both    English   Metric
« Previous Day
Next Day »
Daily Weekly Monthly Yearly Custom
  High: Low: Average:
Temperature: 47.2 °F /  8.4 °C 37.3 °F /  2.9 °C 40.7 °F /  4.8 °C
Dew Point: 37.9 °F /  3.3 °C 31.9 °F /  -0.1 °C 33.8 °F /  1 °C
Humidity: 84 % 68 % 76 %
Wind Speed: 15.5 mph /  24.9 km/h - 7.8 mph /  12.6 km/h
Wind Gust: 26.5 mph /  42.6 km/h - -
Wind:- - SW
Pressure: 29.83 in /  1010 hPa 29.47 in /  997.9 hPa -
Precipitation: 0.00 in /  0 mm    
Historical Graphs
 
 
Tabular Data for March 3, 2018
Time Temperature Dew Point Pressure Wind Wind Speed Wind Gust Humidity Rainfall Rate (Hourly)
00:02 37.5 °F /  3.1 °C 33.1 °F /  0.6 °C 29.47 in /  997.9 hPa North 6.2 mph /  10 km/h 16.0 mph /  25.7 km/h 84 % 0.00 in /  0 mm
00:07 37.5 °F /  3.1 °C 33.1 °F /  0.6 °C 29.47 in /  997.9 hPa North 9.0 mph /  14.5 km/h 21.9 mph /  35.2 km/h 84 % 0.00 in /  0 mm
00:12 37.5 °F /  3.1 °C 32.8 °F /  0.4 °C 29.47 in /  997.9 hPa NNE 15.5 mph /  24.9 km/h 19.6 mph /  31.5 km/h 83 % 0.00 in /  0 mm
00:18 37.5 °F /  3.1 °C 33.1 °F /  0.6 °C 29.48 in /  998.2 hPa North 12.0 mph /  19.3 km/h 12.7 mph /  20.4 km/h 84 % 0.00 in /  0 mm
00:23 37.5 °F /  3.1 °C 32.8 °F /  0.4 °C 29.47 in /  997.9 hPa NNW 8.1 mph /  13 km/h 17.3 mph /  27.8 km/h 83 % 0.00 in /  0 mm
00:28 37.5 °F /  3.1 °C 32.8 °F /  0.4 °C 29.48 in /  998.2 hPa NNW 10.3 mph /  16.6 km/h 17.3 mph /  27.8 km/h 83 % 0.00 in /  0 mm
00:33 37.5 °F /  3.1 °C 32.8 °F /  0.4 °C 29.48 in /  998.2 hPa North 7.7 mph /  12.4 km/h 16.1 mph /  25.9 km/h 83 % 0.00 in /  0 mm
00:38 37.5 °F /  3.1 °C 32.8 °F /  0.4 °C 29.48 in /  998.2 hPa North 14.8 mph /  23.8 km/h 26.5 mph /  42.6 km/h 83 % 0.00 in /  0 mm
00:43 37.5 °F /  3.1 °C 32.8 °F /  0.4 °C 29.48 in /  998.2 hPa NNW 9.8 mph /  15.8 km/h 16.1 mph /  25.9 km/h 83 % 0.00 in /  0 mm
00:48 37.5 °F /  3.1 °C 32.8 °F /  0.4 °C 29.49 in /  998.5 hPa NW 7.3 mph /  11.7 km/h 17.3 mph /  27.8 km/h 83 % 0.00 in /  0 mm
00:53 37.5 °F /  3.1 °C 32.8 °F /  0.4 °C 29.49 in /  998.5 hPa NNW 10.1 mph /  16.3 km/h 20.7 mph /  33.3 km/h 83 % 0.00 in /  0 mm
00:58 37.5 °F /  3.1 °C 32.8 °F /  0.4 °C 29.49 in /  998.5 hPa NNE 10.2 mph /  16.4 km/h 19.6 mph /  31.5 km/h 83 % 0.00 in /  0 mm
01:03 37.5 °F /  3.1 °C 32.8 °F /  0.4 °C 29.49 in /  998.5 hPa North 8.1 mph /  13 km/h 12.0 mph /  19.3 km/h 83 % 0.00 in /  0 mm
01:08 37.4 °F /  3 °C 32.7 °F /  0.4 °C 29.49 in /  998.5 hPa NNW 9.4 mph /  15.1 km/h 16.1 mph /  25.9 km/h 83 % 0.00 in /  0 mm
01:13 37.4 °F /  3 °C 32.7 °F /  0.4 °C 29.49 in /  998.5 hPa North 8.0 mph /  12.9 km/h 17.0 mph /  27.4 km/h 83 % 0.00 in /  0 mm
01:18 37.4 °F /  3 °C 32.7 °F /  0.4 °C 29.49 in /  998.5 hPa NNE 5.7 mph /  9.2 km/h 18.4 mph /  29.6 km/h 83 % 0.00 in /  0 mm
01:23 37.4 °F /  3 °C 32.7 °F /  0.4 °C 29.49 in /  998.5 hPa NNW 8.0 mph /  12.9 km/h 19.6 mph /  31.5 km/h 83 % 0.00 in /  0 mm
01:28 37.4 °F /  3 °C 32.7 °F /  0.4 °C 29.49 in /  998.5 hPa North 6.9 mph /  11.1 km/h 19.6 mph /  31.5 km/h 83 % 0.00 in /  0 mm
01:33 37.4 °F /  3 °C 32.7 °F /  0.4 °C 29.50 in /  998.9 hPa North 7.6 mph /  12.2 km/h 11.5 mph /  18.5 km/h 83 % 0.00 in /  0 mm
01:38 37.4 °F /  3 °C 32.7 °F /  0.4 °C 29.49 in /  998.5 hPa NNW 6.8 mph /  10.9 km/h 13.8 mph /  22.2 km/h 83 % 0.00 in /  0 mm
01:43 37.4 °F /  3 °C 32.7 °F /  0.4 °C 29.49 in /  998.5 hPa North 10.2 mph /  16.4 km/h 19.6 mph /  31.5 km/h 83 % 0.00 in /  0 mm
01:48 37.4 °F /  3 °C 32.7 °F /  0.4 °C 29.49 in /  998.5 hPa NW 6.4 mph /  10.3 km/h 13.0 mph /  20.9 km/h 83 % 0.00 in /  0 mm
01:54 37.4 °F /  3 °C 32.7 °F /  0.4 °C 29.49 in /  998.5 hPa NNE 7.9 mph /  12.7 km/h 12.7 mph /  20.4 km/h 83 % 0.00 in /  0 mm
01:59 37.4 °F /  3 °C 32.7 °F /  0.4 °C 29.49 in /  998.5 hPa NNW 8.4 mph /  13.5 km/h 15.0 mph /  24.1 km/h 83 % 0.00 in /  0 mm
02:04 37.4 °F /  3 °C 32.7 °F /  0.4 °C 29.49 in /  998.5 hPa North 9.7 mph /  15.6 km/h 15.0 mph /  24.1 km/h 83 % 0.00 in /  0 mm
02:09 37.5 °F /  3.1 °C 32.5 °F /  0.3 °C 29.49 in /  998.5 hPa NNW 7.9 mph /  12.7 km/h 12.7 mph /  20.4 km/h 82 % 0.00 in /  0 mm
02:14 37.5 °F /  3.1 °C 32.5 °F /  0.3 °C 29.50 in /  998.9 hPa North 8.8 mph /  14.2 km/h 12.7 mph /  20.4 km/h 82 % 0.00 in /  0 mm
02:19 37.5 °F /  3.1 °C 32.5 °F /  0.3 °C 29.49 in /  998.5 hPa North 9.1 mph /  14.6 km/h 17.3 mph /  27.8 km/h 82 % 0.00 in /  0 mm
02:24 37.5 °F /  3.1 °C 32.5 °F /  0.3 °C 29.49 in /  998.5 hPa North 8.1 mph /  13 km/h 14.0 mph /  22.5 km/h 82 % 0.00 in /  0 mm
02:29 37.5 °F /  3.1 °C 32.8 °F /  0.4 °C 29.50 in /  998.9 hPa NW 5.0 mph /  8 km/h 9.2 mph /  14.8 km/h 83 % 0.00 in /  0 mm
02:34 37.5 °F /  3.1 °C 32.5 °F /  0.3 °C 29.50 in /  998.9 hPa North 9.1 mph /  14.6 km/h 18.4 mph /  29.6 km/h 82 % 0.00 in /  0 mm
02:39 37.5 °F /  3.1 °C 32.5 °F /  0.3 °C 29.50 in /  998.9 hPa NNW 6.8 mph /  10.9 km/h 14.0 mph /  22.5 km/h 82 % 0.00 in /  0 mm
02:44 37.5 °F /  3.1 °C 32.5 °F /  0.3 °C 29.51 in /  999.2 hPa North 5.3 mph /  8.5 km/h 11.5 mph /  18.5 km/h 82 % 0.00 in /  0 mm
02:49 37.5 °F /  3.1 °C 32.5 °F /  0.3 °C 29.51 in /  999.2 hPa NW 8.9 mph /  14.3 km/h 13.8 mph /  22.2 km/h 82 % 0.00 in /  0 mm
02:54 37.5 °F /  3.1 °C 32.5 °F /  0.3 °C 29.51 in /  999.2 hPa North 9.1 mph /  14.6 km/h 18.4 mph /  29.6 km/h 82 % 0.00 in /  0 mm
02:59 37.5 °F /  3.1 °C 32.5 °F /  0.3 °C 29.51 in /  999.2 hPa NNW 5.8 mph /  9.3 km/h 11.5 mph /  18.5 km/h 82 % 0.00 in /  0 mm
03:04 37.4 °F /  3 °C 32.4 °F /  0.2 °C 29.51 in /  999.2 hPa North 6.6 mph /  10.6 km/h 13.8 mph /  22.2 km/h 82 % 0.00 in /  0 mm
03:09 37.4 °F /  3 °C 32.4 °F /  0.2 °C 29.51 in /  999.2 hPa North 6.1 mph /  9.8 km/h 11.5 mph /  18.5 km/h 82 % 0.00 in /  0 mm
03:11 37.4 °F /  3 °C 32.7 °F /  0.4 °C 29.51 in /  999.2 hPa North 4.4 mph /  7.1 km/h 10.4 mph /  16.7 km/h 83 % 0.00 in /  0 mm
03:16 37.4 °F /  3 °C 32.7 °F /  0.4 °C 29.52 in /  999.5 hPa NW 5.7 mph /  9.2 km/h 13.8 mph /  22.2 km/h 83 % 0.00 in /  0 mm
03:21 37.4 °F /  3 °C 32.7 °F /  0.4 °C 29.51 in /  999.2 hPa NNW 7.3 mph /  11.7 km/h 11.5 mph /  18.5 km/h 83 % 0.00 in /  0 mm
03:26 37.4 °F /  3 °C 32.7 °F /  0.4 °C 29.52 in /  999.5 hPa NNW 6.0 mph /  9.7 km/h 9.2 mph /  14.8 km/h 83 % 0.00 in /  0 mm
03:32 37.4 °F /  3 °C 32.7 °F /  0.4 °C 29.53 in /  999.9 hPa NNW 6.8 mph /  10.9 km/h 10.4 mph /  16.7 km/h 83 % 0.00 in /  0 mm
03:37 37.3 °F /  2.9 °C 32.6 °F /  0.3 °C 29.52 in /  999.5 hPa NNE 7.7 mph /  12.4 km/h 16.1 mph /  25.9 km/h 83 % 0.00 in /  0 mm
03:42 37.4 °F /  3 °C 32.4 °F /  0.2 °C 29.52 in /  999.5 hPa NW 8.9 mph /  14.3 km/h 19.6 mph /  31.5 km/h 82 % 0.00 in /  0 mm
03:47 37.4 °F /  3 °C 32.4 °F /  0.2 °C 29.52 in /  999.5 hPa NNW 6.7 mph /  10.8 km/h 11.5 mph /  18.5 km/h 82 % 0.00 in /  0 mm
03:52 37.3 °F /  2.9 °C 32.3 °F /  0.2 °C 29.53 in /  999.9 hPa NNW 8.3 mph /  13.4 km/h 11.5 mph /  18.5 km/h 82 % 0.00 in /  0 mm
03:57 37.3 °F /  2.9 °C 32.6 °F /  0.3 °C 29.52 in /  999.5 hPa North 6.8 mph /  10.9 km/h 12.7 mph /  20.4 km/h 83 % 0.00 in /  0 mm
04:02 37.3 °F /  2.9 °C 32.3 °F /  0.2 °C 29.52 in /  999.5 hPa NNW 7.1 mph /  11.4 km/h 12.7 mph /  20.4 km/h 82 % 0.00 in /  0 mm
04:07 37.3 °F /  2.9 °C 32.3 °F /  0.2 °C 29.54 in /  1000.2 hPa NNW 7.4 mph /  11.9 km/h 16.1 mph /  25.9 km/h 82 % 0.00 in /  0 mm
04:13 37.4 °F /  3 °C 32.4 °F /  0.2 °C 29.53 in /  999.9 hPa North 5.6 mph /  9 km/h 12.0 mph /  19.3 km/h 82 % 0.00 in /  0 mm
04:18 37.4 °F /  3 °C 32.4 °F /  0.2 °C 29.54 in /  1000.2 hPa WNW 8.2 mph /  13.2 km/h 11.5 mph /  18.5 km/h 82 % 0.00 in /  0 mm
04:23 37.4 °F /  3 °C 32.1 °F /  0.1 °C 29.54 in /  1000.2 hPa NNW 7.8 mph /  12.6 km/h 15.0 mph /  24.1 km/h 81 % 0.00 in /  0 mm
04:28 37.4 °F /  3 °C 32.4 °F /  0.2 °C 29.55 in /  1000.6 hPa North 8.3 mph /  13.4 km/h 12.7 mph /  20.4 km/h 82 % 0.00 in /  0 mm
04:33 37.4 °F /  3 °C 32.1 °F /  0.1 °C 29.55 in /  1000.6 hPa North 7.6 mph /  12.2 km/h 12.0 mph /  19.3 km/h 81 % 0.00 in /  0 mm
04:38 37.4 °F /  3 °C 32.4 °F /  0.2 °C 29.55 in /  1000.6 hPa WNW 8.3 mph /  13.4 km/h 12.7 mph /  20.4 km/h 82 % 0.00 in /  0 mm
04:43 37.4 °F /  3 °C 32.4 °F /  0.2 °C 29.55 in /  1000.6 hPa NW 6.2 mph /  10 km/h 9.2 mph /  14.8 km/h 82 % 0.00 in /  0 mm
04:48 37.5 °F /  3.1 °C 32.5 °F /  0.3 °C 29.55 in /  1000.6 hPa NNW 5.9 mph /  9.5 km/h 10.4 mph /  16.7 km/h 82 % 0.00 in /  0 mm
04:53 37.5 °F /  3.1 °C 32.5 °F /  0.3 °C 29.56 in /  1000.9 hPa North 6.7 mph /  10.8 km/h 12.0 mph /  19.3 km/h 82 % 0.00 in /  0 mm
04:58 37.5 °F /  3.1 °C 32.5 °F /  0.3 °C 29.56 in /  1000.9 hPa NNW 6.9 mph /  11.1 km/h 11.5 mph /  18.5 km/h 82 % 0.00 in /  0 mm
05:03 37.5 °F /  3.1 °C 32.5 °F /  0.3 °C 29.56 in /  1000.9 hPa WNW 6.2 mph /  10 km/h 11.5 mph /  18.5 km/h 82 % 0.00 in /  0 mm
05:08 37.5 °F /  3.1 °C 32.5 °F /  0.3 °C 29.56 in /  1000.9 hPa NNW 6.0 mph /  9.7 km/h 10.4 mph /  16.7 km/h 82 % 0.00 in /  0 mm
05:13 37.5 °F /  3.1 °C 32.5 °F /  0.3 °C 29.57 in /  1001.2 hPa North 9.8 mph /  15.8 km/h 11.5 mph /  18.5 km/h 82 % 0.00 in /  0 mm
05:18 37.6 °F /  3.1 °C 32.6 °F /  0.3 °C 29.57 in /  1001.2 hPa North 6.2 mph /  10 km/h 10.4 mph /  16.7 km/h 82 % 0.00 in /  0 mm
05:23 37.6 °F /  3.1 °C 32.6 °F /  0.3 °C 29.57 in /  1001.2 hPa NNW 6.5 mph /  10.5 km/h 11.5 mph /  18.5 km/h 82 % 0.00 in /  0 mm
05:29 37.6 °F /  3.1 °C 32.6 °F /  0.3 °C 29.57 in /  1001.2 hPa NNW 6.2 mph /  10 km/h 9.2 mph /  14.8 km/h 82 % 0.00 in /  0 mm
05:34 37.6 °F /  3.1 °C 32.6 °F /  0.3 °C 29.58 in /  1001.6 hPa North 4.7 mph /  7.6 km/h 10.0 mph /  16.1 km/h 82 % 0.00 in /  0 mm
05:39 37.6 °F /  3.1 °C 32.6 °F /  0.3 °C 29.58 in /  1001.6 hPa North 7.1 mph /  11.4 km/h 9.0 mph /  14.5 km/h 82 % 0.00 in /  0 mm
05:44 37.6 °F /  3.1 °C 32.6 °F /  0.3 °C 29.58 in /  1001.6 hPa NW 4.0 mph /  6.4 km/h 8.1 mph /  13 km/h 82 % 0.00 in /  0 mm
05:49 37.6 °F /  3.1 °C 32.6 °F /  0.3 °C 29.59 in /  1001.9 hPa North 6.3 mph /  10.1 km/h 14.0 mph /  22.5 km/h 82 % 0.00 in /  0 mm
05:54 37.6 °F /  3.1 °C 32.6 °F /  0.3 °C 29.59 in /  1001.9 hPa NW 5.0 mph /  8 km/h 10.4 mph /  16.7 km/h 82 % 0.00 in /  0 mm
05:59 37.6 °F /  3.1 °C 32.6 °F /  0.3 °C 29.60 in /  1002.3 hPa NNW 6.0 mph /  9.7 km/h 11.5 mph /  18.5 km/h 82 % 0.00 in /  0 mm
06:04 37.6 °F /  3.1 °C 32.6 °F /  0.3 °C 29.60 in /  1002.3 hPa North 5.5 mph /  8.9 km/h 13.0 mph /  20.9 km/h 82 % 0.00 in /  0 mm
06:09 37.7 °F /  3.2 °C 32.4 °F /  0.2 °C 29.60 in /  1002.3 hPa North 5.8 mph /  9.3 km/h 13.8 mph /  22.2 km/h 81 % 0.00 in /  0 mm
06:14 37.7 °F /  3.2 °C 32.4 °F /  0.2 °C 29.60 in /  1002.3 hPa NW 3.4 mph /  5.5 km/h 7.0 mph /  11.3 km/h 81 % 0.00 in /  0 mm
06:19 37.7 °F /  3.2 °C 32.4 °F /  0.2 °C 29.61 in /  1002.6 hPa North 5.1 mph /  8.2 km/h 9.2 mph /  14.8 km/h 81 % 0.00 in /  0 mm
06:24 37.7 °F /  3.2 °C 32.1 °F /  0.1 °C 29.62 in /  1002.9 hPa North 8.3 mph /  13.4 km/h 11.5 mph /  18.5 km/h 80 % 0.00 in /  0 mm
06:29 37.8 °F /  3.2 °C 32.5 °F /  0.3 °C 29.62 in /  1002.9 hPa NW 4.4 mph /  7.1 km/h 12.0 mph /  19.3 km/h 81 % 0.00 in /  0 mm
06:34 37.8 °F /  3.2 °C 32.5 °F /  0.3 °C 29.62 in /  1002.9 hPa NNW 5.5 mph /  8.9 km/h 11.5 mph /  18.5 km/h 81 % 0.00 in /  0 mm
06:39 37.8 °F /  3.2 °C 32.5 °F /  0.3 °C 29.63 in /  1003.3 hPa NNE 8.0 mph /  12.9 km/h 11.5 mph /  18.5 km/h 81 % 0.00 in /  0 mm
06:44 37.8 °F /  3.2 °C 32.2 °F /  0.1 °C 29.63 in /  1003.3 hPa NE 11.5 mph /  18.5 km/h 20.0 mph /  32.2 km/h 80 % 0.00 in /  0 mm
06:49 37.8 °F /  3.2 °C 32.2 °F /  0.1 °C 29.63 in /  1003.3 hPa NW 6.9 mph /  11.1 km/h 11.5 mph /  18.5 km/h 80 % 0.00 in /  0 mm
06:54 37.9 °F /  3.3 °C 32.3 °F /  0.2 °C 29.63 in /  1003.3 hPa North 5.5 mph /  8.9 km/h 10.0 mph /  16.1 km/h 80 % 0.00 in /  0 mm
06:59 37.9 °F /  3.3 °C 32.3 °F /  0.2 °C 29.64 in /  1003.6 hPa NNE 8.2 mph /  13.2 km/h 11.0 mph /  17.7 km/h 80 % 0.00 in /  0 mm
07:04 38.0 °F /  3.3 °C 32.4 °F /  0.2 °C 29.64 in /  1003.6 hPa NNW 9.6 mph /  15.4 km/h 11.5 mph /  18.5 km/h 80 % 0.00 in /  0 mm
07:09 38.0 °F /  3.3 °C 32.4 °F /  0.2 °C 29.64 in /  1003.6 hPa NNE 8.9 mph /  14.3 km/h 15.0 mph /  24.1 km/h 80 % 0.00 in /  0 mm
07:14 38.0 °F /  3.3 °C 32.1 °F /  0.1 °C 29.65 in /  1003.9 hPa NNE 6.6 mph /  10.6 km/h 12.7 mph /  20.4 km/h 79 % 0.00 in /  0 mm
07:19 38.1 °F /  3.4 °C 32.2 °F /  0.1 °C 29.65 in /  1003.9 hPa North 7.4 mph /  11.9 km/h 19.6 mph /  31.5 km/h 79 % 0.00 in /  0 mm
07:25 38.1 °F /  3.4 °C 32.2 °F /  0.1 °C 29.66 in /  1004.3 hPa North 9.6 mph /  15.4 km/h 17.0 mph /  27.4 km/h 79 % 0.00 in /  0 mm
07:30 38.2 °F /  3.4 °C 32.3 °F /  0.2 °C 29.66 in /  1004.3 hPa North 12.1 mph /  19.5 km/h 19.6 mph /  31.5 km/h 79 % 0.00 in /  0 mm
07:35 38.2 °F /  3.4 °C 31.9 °F /  -0.1 °C 29.66 in /  1004.3 hPa NNW 9.0 mph /  14.5 km/h 15.0 mph /  24.1 km/h 78 % 0.00 in /  0 mm
07:40 38.3 °F /  3.5 °C 32.4 °F /  0.2 °C 29.66 in /  1004.3 hPa North 6.8 mph /  10.9 km/h 13.8 mph /  22.2 km/h 79 % 0.00 in /  0 mm
07:45 38.3 °F /  3.5 °C 32.4 °F /  0.2 °C 29.66 in /  1004.3 hPa North 5.9 mph /  9.5 km/h 11.5 mph /  18.5 km/h 79 % 0.00 in /  0 mm
07:50 38.4 °F /  3.6 °C 32.5 °F /  0.3 °C 29.67 in /  1004.6 hPa NNE 9.7 mph /  15.6 km/h 19.6 mph /  31.5 km/h 79 % 0.00 in /  0 mm
07:55 38.4 °F /  3.6 °C 32.1 °F /  0.1 °C 29.67 in /  1004.6 hPa NNW 11.0 mph /  17.7 km/h 18.4 mph /  29.6 km/h 78 % 0.00 in /  0 mm
08:00 38.4 °F /  3.6 °C 32.1 °F /  0.1 °C 29.67 in /  1004.6 hPa NNW 9.0 mph /  14.5 km/h 13.8 mph /  22.2 km/h 78 % 0.00 in /  0 mm
08:05 38.5 °F /  3.6 °C 32.2 °F /  0.1 °C 29.67 in /  1004.6 hPa NNE 6.9 mph /  11.1 km/h 13.8 mph /  22.2 km/h 78 % 0.00 in /  0 mm
08:10 38.6 °F /  3.7 °C 32.6 °F /  0.3 °C 29.67 in /  1004.6 hPa NNE 5.8 mph /  9.3 km/h 9.2 mph /  14.8 km/h 79 % 0.00 in /  0 mm
08:15 38.7 °F /  3.7 °C 32.4 °F /  0.2 °C 29.67 in /  1004.6 hPa North 9.8 mph /  15.8 km/h 17.3 mph /  27.8 km/h 78 % 0.00 in /  0 mm
08:20 38.8 °F /  3.8 °C 32.5 °F /  0.3 °C 29.67 in /  1004.6 hPa ENE 9.5 mph /  15.3 km/h 11.0 mph /  17.7 km/h 78 % 0.00 in /  0 mm
08:25 38.9 °F /  3.8 °C 32.6 °F /  0.3 °C 29.67 in /  1004.6 hPa North 7.5 mph /  12.1 km/h 18.4 mph /  29.6 km/h 78 % 0.00 in /  0 mm
08:30 38.9 °F /  3.8 °C 32.3 °F /  0.2 °C 29.68 in /  1005 hPa North 6.2 mph /  10 km/h 11.5 mph /  18.5 km/h 77 % 0.00 in /  0 mm
08:35 39.1 °F /  3.9 °C 32.5 °F /  0.3 °C 29.67 in /  1004.6 hPa NNE 9.6 mph /  15.4 km/h 19.6 mph /  31.5 km/h 77 % 0.00 in /  0 mm
08:40 39.2 °F /  4 °C 32.3 °F /  0.2 °C 29.67 in /  1004.6 hPa NNE 11.0 mph /  17.7 km/h 18.4 mph /  29.6 km/h 76 % 0.00 in /  0 mm
08:45 39.4 °F /  4.1 °C 32.5 °F /  0.3 °C 29.68 in /  1005 hPa North 8.8 mph /  14.2 km/h 15.0 mph /  24.1 km/h 76 % 0.00 in /  0 mm
08:51 39.7 °F /  4.3 °C 33.1 °F /  0.6 °C 29.68 in /  1005 hPa NNW 8.7 mph /  14 km/h 12.7 mph /  20.4 km/h 77 % 0.00 in /  0 mm
08:56 39.9 °F /  4.4 °C 32.9 °F /  0.5 °C 29.69 in /  1005.3 hPa North 5.0 mph /  8 km/h 17.0 mph /  27.4 km/h 76 % 0.00 in /  0 mm
09:01 40.1 °F /  4.5 °C 32.8 °F /  0.4 °C 29.69 in /  1005.3 hPa North 7.9 mph /  12.7 km/h 21.0 mph /  33.8 km/h 75 % 0.00 in /  0 mm
09:06 40.3 °F /  4.6 °C 32.7 °F /  0.4 °C 29.68 in /  1005 hPa NW 9.0 mph /  14.5 km/h 16.1 mph /  25.9 km/h 74 % 0.00 in /  0 mm
09:11 40.5 °F /  4.7 °C 32.9 °F /  0.5 °C 29.69 in /  1005.3 hPa NNE 9.7 mph /  15.6 km/h 19.6 mph /  31.5 km/h 74 % 0.00 in /  0 mm
09:16 40.8 °F /  4.9 °C 32.8 °F /  0.4 °C 29.69 in /  1005.3 hPa North 6.1 mph /  9.8 km/h 13.8 mph /  22.2 km/h 73 % 0.00 in /  0 mm
09:21 41.2 °F /  5.1 °C 33.5 °F /  0.8 °C 29.68 in /  1005 hPa NNW 7.3 mph /  11.7 km/h 11.5 mph /  18.5 km/h 74 % 0.00 in /  0 mm
09:26 41.5 °F /  5.3 °C 33.5 °F /  0.8 °C 29.68 in /  1005 hPa NNW 6.7 mph /  10.8 km/h 10.4 mph /  16.7 km/h 73 % 0.00 in /  0 mm
09:31 41.8 °F /  5.4 °C 33.8 °F /  1 °C 29.68 in /  1005 hPa NW 7.9 mph /  12.7 km/h 15.0 mph /  24.1 km/h 73 % 0.00 in /  0 mm
09:36 42.0 °F /  5.6 °C 33.6 °F /  0.9 °C 29.68 in /  1005 hPa NW 8.5 mph /  13.7 km/h 13.8 mph /  22.2 km/h 72 % 0.00 in /  0 mm
09:41 42.0 °F /  5.6 °C 33.3 °F /  0.7 °C 29.68 in /  1005 hPa NNW 8.0 mph /  12.9 km/h 11.5 mph /  18.5 km/h 71 % 0.00 in /  0 mm
09:46 41.9 °F /  5.5 °C 33.2 °F /  0.7 °C 29.69 in /  1005.3 hPa NNW 7.5 mph /  12.1 km/h 11.0 mph /  17.7 km/h 71 % 0.00 in /  0 mm
09:51 42.2 °F /  5.7 °C 34.2 °F /  1.2 °C 29.69 in /  1005.3 hPa North 6.7 mph /  10.8 km/h 12.7 mph /  20.4 km/h 73 % 0.00 in /  0 mm
09:56 42.5 °F /  5.8 °C 34.1 °F /  1.2 °C 29.69 in /  1005.3 hPa NW 8.7 mph /  14 km/h 16.1 mph /  25.9 km/h 72 % 0.00 in /  0 mm
10:02 43.2 °F /  6.2 °C 35.1 °F /  1.7 °C 29.69 in /  1005.3 hPa NW 7.7 mph /  12.4 km/h 12.7 mph /  20.4 km/h 73 % 0.00 in /  0 mm
10:07 43.6 °F /  6.4 °C 34.8 °F /  1.6 °C 29.68 in /  1005 hPa NW 8.6 mph /  13.8 km/h 16.1 mph /  25.9 km/h 71 % 0.00 in /  0 mm
10:12 43.6 °F /  6.4 °C 34.5 °F /  1.4 °C 29.68 in /  1005 hPa NNW 7.2 mph /  11.6 km/h 13.8 mph /  22.2 km/h 70 % 0.00 in /  0 mm
10:17 43.7 °F /  6.5 °C 34.6 °F /  1.4 °C 29.69 in /  1005.3 hPa North 9.7 mph /  15.6 km/h 11.5 mph /  18.5 km/h 70 % 0.00 in /  0 mm
10:22 44.1 °F /  6.7 °C 34.9 °F /  1.6 °C 29.68 in /  1005 hPa NW 8.8 mph /  14.2 km/h 16.1 mph /  25.9 km/h 70 % 0.00 in /  0 mm
10:27 44.4 °F /  6.9 °C 35.6 °F /  2 °C 29.68 in /  1005 hPa NW 5.8 mph /  9.3 km/h 16.1 mph /  25.9 km/h 71 % 0.00 in /  0 mm
10:32 44.3 °F /  6.8 °C 34.8 °F /  1.6 °C 29.68 in /  1005 hPa NNW 9.9 mph /  15.9 km/h 15.0 mph /  24.1 km/h 69 % 0.00 in /  0 mm
10:37 43.9 °F /  6.6 °C 34.4 °F /  1.3 °C 29.68 in /  1005 hPa NNW 8.9 mph /  14.3 km/h 16.1 mph /  25.9 km/h 69 % 0.00 in /  0 mm
10:42 43.7 °F /  6.5 °C 34.6 °F /  1.4 °C 29.68 in /  1005 hPa NNE 5.8 mph /  9.3 km/h 10.4 mph /  16.7 km/h 70 % 0.00 in /  0 mm
10:47 43.6 °F /  6.4 °C 34.5 °F /  1.4 °C 29.67 in /  1004.6 hPa NNW 6.9 mph /  11.1 km/h 12.7 mph /  20.4 km/h 70 % 0.00 in /  0 mm
10:52 44.0 °F /  6.7 °C 35.6 °F /  2 °C 29.68 in /  1005 hPa NNW 4.2 mph /  6.8 km/h 9.2 mph /  14.8 km/h 72 % 0.00 in /  0 mm
10:57 44.3 °F /  6.8 °C 35.1 °F /  1.7 °C 29.68 in /  1005 hPa NW 10.0 mph /  16.1 km/h 17.3 mph /  27.8 km/h 70 % 0.00 in /  0 mm
11:02 44.9 °F /  7.2 °C 35.7 °F /  2.1 °C 29.68 in /  1005 hPa NNW 8.3 mph /  13.4 km/h 11.5 mph /  18.5 km/h 70 % 0.00 in /  0 mm
11:07 45.0 °F /  7.2 °C 35.8 °F /  2.1 °C 29.68 in /  1005 hPa NNW 5.4 mph /  8.7 km/h 10.4 mph /  16.7 km/h 70 % 0.00 in /  0 mm
11:12 45.0 °F /  7.2 °C 35.8 °F /  2.1 °C 29.68 in /  1005 hPa NNE 5.5 mph /  8.9 km/h 11.0 mph /  17.7 km/h 70 % 0.00 in /  0 mm
11:17 45.1 °F /  7.3 °C 35.9 °F /  2.2 °C 29.68 in /  1005 hPa ENE 9.5 mph /  15.3 km/h 13.8 mph /  22.2 km/h 70 % 0.00 in /  0 mm
11:22 45.4 °F /  7.4 °C 36.2 °F /  2.3 °C 29.69 in /  1005.3 hPa NW 7.1 mph /  11.4 km/h 12.7 mph /  20.4 km/h 70 % 0.00 in /  0 mm
11:27 45.6 °F /  7.6 °C 35.6 °F /  2 °C 29.68 in /  1005 hPa NNW 9.1 mph /  14.6 km/h 16.1 mph /  25.9 km/h 68 % 0.00 in /  0 mm
11:32 45.4 °F /  7.4 °C 36.2 °F /  2.3 °C 29.68 in /  1005 hPa NNW 5.2 mph /  8.4 km/h 9.2 mph /  14.8 km/h 70 % 0.00 in /  0 mm
11:34 45.4 °F /  7.4 °C 35.8 °F /  2.1 °C 29.68 in /  1005 hPa NNW 4.1 mph /  6.6 km/h 9.2 mph /  14.8 km/h 69 % 0.00 in /  0 mm
11:39 45.5 °F /  7.5 °C 36.6 °F /  2.6 °C 29.68 in /  1005 hPa NNE 5.6 mph /  9 km/h 11.5 mph /  18.5 km/h 71 % 0.00 in /  0 mm
11:44 45.9 °F /  7.7 °C 37.0 °F /  2.8 °C 29.68 in /  1005 hPa NNW 7.9 mph /  12.7 km/h 10.4 mph /  16.7 km/h 71 % 0.00 in /  0 mm
11:49 46.3 °F /  7.9 °C 37.0 °F /  2.8 °C 29.68 in /  1005 hPa NNW 6.0 mph /  9.7 km/h 12.0 mph /  19.3 km/h 70 % 0.00 in /  0 mm
11:54 46.4 °F /  8 °C 36.8 °F /  2.7 °C 29.68 in /  1005 hPa North 9.0 mph /  14.5 km/h 12.7 mph /  20.4 km/h 69 % 0.00 in /  0 mm
11:59 46.6 °F /  8.1 °C 37.3 °F /  2.9 °C 29.68 in /  1005 hPa North 6.3 mph /  10.1 km/h 11.5 mph /  18.5 km/h 70 % 0.00 in /  0 mm
12:05 47.0 °F /  8.3 °C 37.4 °F /  3 °C 29.69 in /  1005.3 hPa North 8.8 mph /  14.2 km/h 12.7 mph /  20.4 km/h 69 % 0.00 in /  0 mm
12:10 46.9 °F /  8.3 °C 36.9 °F /  2.7 °C 29.69 in /  1005.3 hPa NNE 8.0 mph /  12.9 km/h 15.0 mph /  24.1 km/h 68 % 0.00 in /  0 mm
12:15 47.2 °F /  8.4 °C 37.9 °F /  3.3 °C 29.69 in /  1005.3 hPa NE 8.4 mph /  13.5 km/h 12.0 mph /  19.3 km/h 70 % 0.00 in /  0 mm
12:20 47.0 °F /  8.3 °C 37.0 °F /  2.8 °C 29.69 in /  1005.3 hPa North 6.4 mph /  10.3 km/h 11.5 mph /  18.5 km/h 68 % 0.00 in /  0 mm
12:25 46.6 °F /  8.1 °C 37.0 °F /  2.8 °C 29.69 in /  1005.3 hPa NNW 5.5 mph /  8.9 km/h 13.8 mph /  22.2 km/h 69 % 0.00 in /  0 mm
12:30 46.2 °F /  7.9 °C 36.6 °F /  2.6 °C 29.69 in /  1005.3 hPa North 8.5 mph /  13.7 km/h 13.8 mph /  22.2 km/h 69 % 0.00 in /  0 mm
12:35 45.9 °F /  7.7 °C 36.7 °F /  2.6 °C 29.69 in /  1005.3 hPa North 7.9 mph /  12.7 km/h 12.7 mph /  20.4 km/h 70 % 0.00 in /  0 mm
12:40 45.8 °F /  7.7 °C 36.6 °F /  2.6 °C 29.70 in /  1005.6 hPa NNW 6.8 mph /  10.9 km/h 13.8 mph /  22.2 km/h 70 % 0.00 in /  0 mm
12:45 45.7 °F /  7.6 °C 36.8 °F /  2.7 °C 29.69 in /  1005.3 hPa North 5.7 mph /  9.2 km/h 11.5 mph /  18.5 km/h 71 % 0.00 in /  0 mm
12:50 45.9 °F /  7.7 °C 37.0 °F /  2.8 °C 29.69 in /  1005.3 hPa North 4.7 mph /  7.6 km/h 9.2 mph /  14.8 km/h 71 % 0.00 in /  0 mm
12:55 46.2 °F /  7.9 °C 37.3 °F /  2.9 °C 29.69 in /  1005.3 hPa North 5.9 mph /  9.5 km/h 9.2 mph /  14.8 km/h 71 % 0.00 in /  0 mm
13:00 46.3 °F /  7.9 °C 36.7 °F /  2.6 °C 29.69 in /  1005.3 hPa North 6.2 mph /  10 km/h 11.5 mph /  18.5 km/h 69 % 0.00 in /  0 mm
13:05 46.3 °F /  7.9 °C 37.0 °F /  2.8 °C 29.69 in /  1005.3 hPa North 7.3 mph /  11.7 km/h 9.2 mph /  14.8 km/h 70 % 0.00 in /  0 mm
13:10 46.2 °F /  7.9 °C 37.3 °F /  2.9 °C 29.69 in /  1005.3 hPa North 5.7 mph /  9.2 km/h 13.8 mph /  22.2 km/h 71 % 0.00 in /  0 mm
13:15 45.9 °F /  7.7 °C 36.7 °F /  2.6 °C 29.69 in /  1005.3 hPa North 4.9 mph /  7.9 km/h 11.5 mph /  18.5 km/h 70 % 0.00 in /  0 mm
13:20 45.7 °F /  7.6 °C 36.5 °F /  2.5 °C 29.69 in /  1005.3 hPa North 4.3 mph /  6.9 km/h 6.9 mph /  11.1 km/h 70 % 0.00 in /  0 mm
13:25 45.4 °F /  7.4 °C 36.2 °F /  2.3 °C 29.69 in /  1005.3 hPa North 5.3 mph /  8.5 km/h 12.7 mph /  20.4 km/h 70 % 0.00 in /  0 mm
13:31 45.1 °F /  7.3 °C 35.9 °F /  2.2 °C 29.69 in /  1005.3 hPa North 8.0 mph /  12.9 km/h 14.0 mph /  22.5 km/h 70 % 0.00 in /  0 mm
13:36 44.9 °F /  7.2 °C 36.1 °F /  2.3 °C 29.70 in /  1005.6 hPa North 5.0 mph /  8 km/h 15.0 mph /  24.1 km/h 71 % 0.00 in /  0 mm
13:41 44.6 °F /  7 °C 35.8 °F /  2.1 °C 29.70 in /  1005.6 hPa North 6.0 mph /  9.7 km/h 15.0 mph /  24.1 km/h 71 % 0.00 in /  0 mm
13:46 44.4 °F /  6.9 °C 36.0 °F /  2.2 °C 29.70 in /  1005.6 hPa North 6.0 mph /  9.7 km/h 13.0 mph /  20.9 km/h 72 % 0.00 in /  0 mm
13:51 44.1 °F /  6.7 °C 35.7 °F /  2.1 °C 29.70 in /  1005.6 hPa North 5.0 mph /  8 km/h 14.0 mph /  22.5 km/h 72 % 0.00 in /  0 mm
13:56 43.9 °F /  6.6 °C 35.4 °F /  1.9 °C 29.70 in /  1005.6 hPa North 8.0 mph /  12.9 km/h 14.0 mph /  22.5 km/h 72 % 0.00 in /  0 mm
14:00 43.6 °F /  6.4 °C 35.2 °F /  1.8 °C 29.70 in /  1005.6 hPa North 6.2 mph /  10 km/h 12.7 mph /  20.4 km/h 72 % 0.00 in /  0 mm
14:06 43.5 °F /  6.4 °C 35.4 °F /  1.9 °C 29.71 in /  1006 hPa NNW 8.0 mph /  12.9 km/h 18.0 mph /  29 km/h 73 % 0.00 in /  0 mm
14:11 43.4 °F /  6.3 °C 35.3 °F /  1.8 °C 29.71 in /  1006 hPa NNW 6.0 mph /  9.7 km/h 12.0 mph /  19.3 km/h 73 % 0.00 in /  0 mm
14:16 43.3 °F /  6.3 °C 35.6 °F /  2 °C 29.70 in /  1005.6 hPa North 5.4 mph /  8.7 km/h 7.0 mph /  11.3 km/h 74 % 0.00 in /  0 mm
14:21 43.3 °F /  6.3 °C 35.6 °F /  2 °C 29.71 in /  1006 hPa NNW 7.0 mph /  11.3 km/h 15.0 mph /  24.1 km/h 74 % 0.00 in /  0 mm
14:26 43.3 °F /  6.3 °C 35.5 °F /  1.9 °C 29.71 in /  1006 hPa NNW 6.0 mph /  9.7 km/h 14.0 mph /  22.5 km/h 74 % 0.00 in /  0 mm
14:31 43.3 °F /  6.3 °C 35.2 °F /  1.8 °C 29.71 in /  1006 hPa NNW 7.0 mph /  11.3 km/h 16.0 mph /  25.7 km/h 73 % 0.00 in /  0 mm
14:36 43.3 °F /  6.3 °C 35.2 °F /  1.8 °C 29.71 in /  1006 hPa North 3.0 mph /  4.8 km/h 18.0 mph /  29 km/h 73 % 0.00 in /  0 mm
14:41 43.3 °F /  6.3 °C 35.6 °F /  2 °C 29.71 in /  1006 hPa North 8.0 mph /  12.9 km/h 14.0 mph /  22.5 km/h 74 % 0.00 in /  0 mm
14:46 43.3 °F /  6.3 °C 35.3 °F /  1.8 °C 29.71 in /  1006 hPa North 7.0 mph /  11.3 km/h 18.0 mph /  29 km/h 73 % 0.00 in /  0 mm
14:51 43.4 °F /  6.3 °C 35.3 °F /  1.8 °C 29.71 in /  1006 hPa North 8.0 mph /  12.9 km/h 20.0 mph /  32.2 km/h 73 % 0.00 in /  0 mm
14:56 43.4 °F /  6.3 °C 35.3 °F /  1.8 °C 29.71 in /  1006 hPa North 7.0 mph /  11.3 km/h 16.0 mph /  25.7 km/h 73 % 0.00 in /  0 mm
15:01 43.3 °F /  6.3 °C 35.2 °F /  1.8 °C 29.72 in /  1006.3 hPa NNE 8.8 mph /  14.2 km/h 15.0 mph /  24.1 km/h 73 % 0.00 in /  0 mm
15:06 43.1 °F /  6.2 °C 35.0 °F /  1.7 °C 29.72 in /  1006.3 hPa NNE 7.8 mph /  12.6 km/h 15.0 mph /  24.1 km/h 73 % 0.00 in /  0 mm
15:11 43.0 °F /  6.1 °C 34.9 °F /  1.6 °C 29.72 in /  1006.3 hPa NNE 9.5 mph /  15.3 km/h 18.4 mph /  29.6 km/h 73 % 0.00 in /  0 mm
15:16 43.0 °F /  6.1 °C 34.9 °F /  1.6 °C 29.72 in /  1006.3 hPa North 6.3 mph /  10.1 km/h 11.5 mph /  18.5 km/h 73 % 0.00 in /  0 mm
15:21 42.9 °F /  6.1 °C 35.2 °F /  1.8 °C 29.72 in /  1006.3 hPa North 8.3 mph /  13.4 km/h 13.8 mph /  22.2 km/h 74 % 0.00 in /  0 mm
15:26 42.9 °F /  6.1 °C 34.8 °F /  1.6 °C 29.73 in /  1006.7 hPa NE 7.1 mph /  11.4 km/h 12.0 mph /  19.3 km/h 73 % 0.00 in /  0 mm
15:31 42.9 °F /  6.1 °C 34.8 °F /  1.6 °C 29.73 in /  1006.7 hPa NNE 7.5 mph /  12.1 km/h 15.0 mph /  24.1 km/h 73 % 0.00 in /  0 mm
15:36 42.9 °F /  6.1 °C 34.8 °F /  1.6 °C 29.73 in /  1006.7 hPa NNE 9.1 mph /  14.6 km/h 13.8 mph /  22.2 km/h 73 % 0.00 in /  0 mm
15:41 43.0 °F /  6.1 °C 34.9 °F /  1.6 °C 29.73 in /  1006.7 hPa North 7.7 mph /  12.4 km/h 17.3 mph /  27.8 km/h 73 % 0.00 in /  0 mm
15:46 43.0 °F /  6.1 °C 34.9 °F /  1.6 °C 29.74 in /  1007 hPa North 9.2 mph /  14.8 km/h 13.0 mph /  20.9 km/h 73 % 0.00 in /  0 mm
15:52 43.0 °F /  6.1 °C 35.3 °F /  1.8 °C 29.73 in /  1006.7 hPa NNE 8.4 mph /  13.5 km/h 15.0 mph /  24.1 km/h 74 % 0.00 in /  0 mm
15:57 42.9 °F /  6.1 °C 34.8 °F /  1.6 °C 29.74 in /  1007 hPa NNE 11.0 mph /  17.7 km/h 17.3 mph /  27.8 km/h 73 % 0.00 in /  0 mm
16:02 42.9 °F /  6.1 °C 34.8 °F /  1.6 °C 29.73 in /  1006.7 hPa North 13.6 mph /  21.9 km/h 23.0 mph /  37 km/h 73 % 0.00 in /  0 mm
16:07 42.8 °F /  6 °C 34.7 °F /  1.5 °C 29.74 in /  1007 hPa NNW 10.6 mph /  17.1 km/h 17.3 mph /  27.8 km/h 73 % 0.00 in /  0 mm
16:12 42.8 °F /  6 °C 35.1 °F /  1.7 °C 29.74 in /  1007 hPa North 9.0 mph /  14.5 km/h 18.4 mph /  29.6 km/h 74 % 0.00 in /  0 mm
16:17 42.7 °F /  5.9 °C 34.6 °F /  1.4 °C 29.74 in /  1007 hPa North 10.7 mph /  17.2 km/h 20.7 mph /  33.3 km/h 73 % 0.00 in /  0 mm
16:22 42.6 °F /  5.9 °C 34.5 °F /  1.4 °C 29.74 in /  1007 hPa NNE 8.2 mph /  13.2 km/h 12.0 mph /  19.3 km/h 73 % 0.00 in /  0 mm
16:27 42.6 °F /  5.9 °C 34.9 °F /  1.6 °C 29.74 in /  1007 hPa North 8.4 mph /  13.5 km/h 12.7 mph /  20.4 km/h 74 % 0.00 in /  0 mm
16:32 42.5 °F /  5.8 °C 34.8 °F /  1.6 °C 29.75 in /  1007.3 hPa NNE 8.1 mph /  13 km/h 12.7 mph /  20.4 km/h 74 % 0.00 in /  0 mm
16:37 42.5 °F /  5.8 °C 35.1 °F /  1.7 °C 29.75 in /  1007.3 hPa NNE 9.2 mph /  14.8 km/h 16.0 mph /  25.7 km/h 75 % 0.00 in /  0 mm
16:42 42.4 °F /  5.8 °C 35.0 °F /  1.7 °C 29.75 in /  1007.3 hPa North 9.2 mph /  14.8 km/h 13.0 mph /  20.9 km/h 75 % 0.00 in /  0 mm
16:47 42.3 °F /  5.7 °C 34.9 °F /  1.6 °C 29.75 in /  1007.3 hPa North 5.6 mph /  9 km/h 13.8 mph /  22.2 km/h 75 % 0.00 in /  0 mm
16:52 42.3 °F /  5.7 °C 34.9 °F /  1.6 °C 29.75 in /  1007.3 hPa NNE 9.5 mph /  15.3 km/h 11.5 mph /  18.5 km/h 75 % 0.00 in /  0 mm
16:57 42.2 °F /  5.7 °C 34.8 °F /  1.6 °C 29.76 in /  1007.7 hPa North 8.6 mph /  13.8 km/h 14.0 mph /  22.5 km/h 75 % 0.00 in /  0 mm
17:02 42.2 °F /  5.7 °C 34.8 °F /  1.6 °C 29.76 in /  1007.7 hPa NNE 6.5 mph /  10.5 km/h 11.5 mph /  18.5 km/h 75 % 0.00 in /  0 mm
17:07 42.2 °F /  5.7 °C 34.8 °F /  1.6 °C 29.76 in /  1007.7 hPa North 7.5 mph /  12.1 km/h 13.8 mph /  22.2 km/h 75 % 0.00 in /  0 mm
17:12 42.3 °F /  5.7 °C 34.3 °F /  1.3 °C 29.76 in /  1007.7 hPa North 9.2 mph /  14.8 km/h 15.0 mph /  24.1 km/h 73 % 0.00 in /  0 mm
17:17 42.3 °F /  5.7 °C 34.6 °F /  1.4 °C 29.76 in /  1007.7 hPa NNE 9.1 mph /  14.6 km/h 15.0 mph /  24.1 km/h 74 % 0.00 in /  0 mm
17:22 42.4 °F /  5.8 °C 34.4 °F /  1.3 °C 29.76 in /  1007.7 hPa NNE 12.4 mph /  20 km/h 21.9 mph /  35.2 km/h 73 % 0.00 in /  0 mm
17:27 42.3 °F /  5.7 °C 34.3 °F /  1.3 °C 29.76 in /  1007.7 hPa North 7.5 mph /  12.1 km/h 12.7 mph /  20.4 km/h 73 % 0.00 in /  0 mm
17:33 42.2 °F /  5.7 °C 34.2 °F /  1.2 °C 29.76 in /  1007.7 hPa North 10.3 mph /  16.6 km/h 15.0 mph /  24.1 km/h 73 % 0.00 in /  0 mm
17:38 42.1 °F /  5.6 °C 34.1 °F /  1.2 °C 29.76 in /  1007.7 hPa NNW 12.2 mph /  19.6 km/h 13.0 mph /  20.9 km/h 73 % 0.00 in /  0 mm
17:43 42.0 °F /  5.6 °C 34.0 °F /  1.1 °C 29.77 in /  1008 hPa North 12.5 mph /  20.1 km/h 21.9 mph /  35.2 km/h 73 % 0.00 in /  0 mm
17:48 42.0 °F /  5.6 °C 34.0 °F /  1.1 °C 29.77 in /  1008 hPa North 8.8 mph /  14.2 km/h 17.3 mph /  27.8 km/h 73 % 0.00 in /  0 mm
17:53 42.0 °F /  5.6 °C 33.6 °F /  0.9 °C 29.78 in /  1008.4 hPa NE 12.0 mph /  19.3 km/h 18.4 mph /  29.6 km/h 72 % 0.00 in /  0 mm
17:58 42.1 °F /  5.6 °C 34.1 °F /  1.2 °C 29.78 in /  1008.4 hPa NNE 10.0 mph /  16.1 km/h 15.0 mph /  24.1 km/h 73 % 0.00 in /  0 mm
18:03 42.1 °F /  5.6 °C 34.1 °F /  1.2 °C 29.78 in /  1008.4 hPa NNE 6.5 mph /  10.5 km/h 11.5 mph /  18.5 km/h 73 % 0.00 in /  0 mm
18:08 42.0 °F /  5.6 °C 34.3 °F /  1.3 °C 29.78 in /  1008.4 hPa North 8.0 mph /  12.9 km/h 11.5 mph /  18.5 km/h 74 % 0.00 in /  0 mm
18:13 42.0 °F /  5.6 °C 34.3 °F /  1.3 °C 29.78 in /  1008.4 hPa NNW 8.3 mph /  13.4 km/h 13.8 mph /  22.2 km/h 74 % 0.00 in /  0 mm
18:18 41.9 °F /  5.5 °C 33.9 °F /  1.1 °C 29.78 in /  1008.4 hPa North 6.5 mph /  10.5 km/h 10.4 mph /  16.7 km/h 73 % 0.00 in /  0 mm
18:23 41.9 °F /  5.5 °C 33.9 °F /  1.1 °C 29.79 in /  1008.7 hPa NNE 9.2 mph /  14.8 km/h 15.0 mph /  24.1 km/h 73 % 0.00 in /  0 mm
18:28 41.9 °F /  5.5 °C 33.9 °F /  1.1 °C 29.79 in /  1008.7 hPa North 7.7 mph /  12.4 km/h 15.0 mph /  24.1 km/h 73 % 0.00 in /  0 mm
18:33 41.9 °F /  5.5 °C 34.2 °F /  1.2 °C 29.79 in /  1008.7 hPa NNW 5.9 mph /  9.5 km/h 11.5 mph /  18.5 km/h 74 % 0.00 in /  0 mm
18:38 41.8 °F /  5.4 °C 34.1 °F /  1.2 °C 29.79 in /  1008.7 hPa North 5.4 mph /  8.7 km/h 11.5 mph /  18.5 km/h 74 % 0.00 in /  0 mm
18:43 41.8 °F /  5.4 °C 34.1 °F /  1.2 °C 29.79 in /  1008.7 hPa NW 7.1 mph /  11.4 km/h 12.7 mph /  20.4 km/h 74 % 0.00 in /  0 mm
18:48 41.8 °F /  5.4 °C 34.1 °F /  1.2 °C 29.80 in /  1009 hPa North 8.1 mph /  13 km/h 13.8 mph /  22.2 km/h 74 % 0.00 in /  0 mm
18:53 41.8 °F /  5.4 °C 33.8 °F /  1 °C 29.79 in /  1008.7 hPa NNE 9.9 mph /  15.9 km/h 18.4 mph /  29.6 km/h 73 % 0.00 in /  0 mm
18:58 41.7 °F /  5.4 °C 34.0 °F /  1.1 °C 29.80 in /  1009 hPa NNE 8.6 mph /  13.8 km/h 13.8 mph /  22.2 km/h 74 % 0.00 in /  0 mm
19:03 41.7 °F /  5.4 °C 33.7 °F /  0.9 °C 29.80 in /  1009 hPa North 10.3 mph /  16.6 km/h 17.3 mph /  27.8 km/h 73 % 0.00 in /  0 mm
19:08 41.6 °F /  5.3 °C 33.6 °F /  0.9 °C 29.80 in /  1009 hPa NNE 10.1 mph /  16.3 km/h 13.8 mph /  22.2 km/h 73 % 0.00 in /  0 mm
19:14 41.6 °F /  5.3 °C 33.6 °F /  0.9 °C 29.80 in /  1009 hPa NNE 8.9 mph /  14.3 km/h 13.0 mph /  20.9 km/h 73 % 0.00 in /  0 mm
19:19 41.6 °F /  5.3 °C 33.9 °F /  1.1 °C 29.80 in /  1009 hPa NE 9.9 mph /  15.9 km/h 17.3 mph /  27.8 km/h 74 % 0.00 in /  0 mm
19:21 41.5 °F /  5.3 °C 33.5 °F /  0.8 °C 29.80 in /  1009 hPa North 12.7 mph /  20.4 km/h 17.3 mph /  27.8 km/h 73 % 0.00 in /  0 mm
19:26 41.5 °F /  5.3 °C 33.8 °F /  1 °C 29.80 in /  1009 hPa North 9.1 mph /  14.6 km/h 13.0 mph /  20.9 km/h 74 % 0.00 in /  0 mm
19:31 41.5 °F /  5.3 °C 33.8 °F /  1 °C 29.80 in /  1009 hPa NW 8.8 mph /  14.2 km/h 14.0 mph /  22.5 km/h 74 % 0.00 in /  0 mm
19:36 41.4 °F /  5.2 °C 33.4 °F /  0.8 °C 29.80 in /  1009 hPa North 6.7 mph /  10.8 km/h 13.8 mph /  22.2 km/h 73 % 0.00 in /  0 mm
19:41 41.3 °F /  5.2 °C 34.0 °F /  1.1 °C 29.81 in /  1009.4 hPa NNE 10.2 mph /  16.4 km/h 16.0 mph /  25.7 km/h 75 % 0.00 in /  0 mm
19:46 41.3 °F /  5.2 °C 33.6 °F /  0.9 °C 29.81 in /  1009.4 hPa North 8.7 mph /  14 km/h 16.1 mph /  25.9 km/h 74 % 0.00 in /  0 mm
19:51 41.2 °F /  5.1 °C 33.5 °F /  0.8 °C 29.81 in /  1009.4 hPa North 9.9 mph /  15.9 km/h 18.4 mph /  29.6 km/h 74 % 0.00 in /  0 mm
19:56 41.2 °F /  5.1 °C 33.5 °F /  0.8 °C 29.81 in /  1009.4 hPa NNE 8.3 mph /  13.4 km/h 12.7 mph /  20.4 km/h 74 % 0.00 in /  0 mm
20:01 41.1 °F /  5.1 °C 33.4 °F /  0.8 °C 29.81 in /  1009.4 hPa NE 10.3 mph /  16.6 km/h 15.0 mph /  24.1 km/h 74 % 0.00 in /  0 mm
20:06 41.1 °F /  5.1 °C 33.4 °F /  0.8 °C 29.82 in /  1009.7 hPa NE 5.4 mph /  8.7 km/h 11.5 mph /  18.5 km/h 74 % 0.00 in /  0 mm
20:11 41.0 °F /  5 °C 33.3 °F /  0.7 °C 29.81 in /  1009.4 hPa North 7.5 mph /  12.1 km/h 12.7 mph /  20.4 km/h 74 % 0.00 in /  0 mm
20:16 41.0 °F /  5 °C 33.3 °F /  0.7 °C 29.82 in /  1009.7 hPa NNE 9.5 mph /  15.3 km/h 14.0 mph /  22.5 km/h 74 % 0.00 in /  0 mm
20:21 40.9 °F /  4.9 °C 33.2 °F /  0.7 °C 29.82 in /  1009.7 hPa NNE 10.8 mph /  17.4 km/h 15.0 mph /  24.1 km/h 74 % 0.00 in /  0 mm
20:26 40.9 °F /  4.9 °C 33.2 °F /  0.7 °C 29.82 in /  1009.7 hPa North 10.3 mph /  16.6 km/h 17.3 mph /  27.8 km/h 74 % 0.00 in /  0 mm
20:31 40.8 °F /  4.9 °C 33.2 °F /  0.7 °C 29.83 in /  1010 hPa North 9.3 mph /  15 km/h 15.0 mph /  24.1 km/h 74 % 0.00 in /  0 mm
20:36 40.8 °F /  4.9 °C 33.2 °F /  0.7 °C 29.83 in /  1010 hPa NE 10.4 mph /  16.7 km/h 12.0 mph /  19.3 km/h 74 % 0.00 in /  0 mm
20:41 40.7 °F /  4.8 °C 33.4 °F /  0.8 °C 29.82 in /  1009.7 hPa NNE 7.9 mph /  12.7 km/h 10.4 mph /  16.7 km/h 75 % 0.00 in /  0 mm
20:47 40.6 °F /  4.8 °C 33.0 °F /  0.6 °C 29.83 in /  1010 hPa North 8.0 mph /  12.9 km/h 16.1 mph /  25.9 km/h 74 % 0.00 in /  0 mm
20:52 40.6 °F /  4.8 °C 33.3 °F /  0.7 °C 29.83 in /  1010 hPa North 8.3 mph /  13.4 km/h 12.7 mph /  20.4 km/h 75 % 0.00 in /  0 mm
20:57 40.5 °F /  4.7 °C 32.9 °F /  0.5 °C 29.83 in /  1010 hPa NNE 7.6 mph /  12.2 km/h 16.1 mph /  25.9 km/h 74 % 0.00 in /  0 mm
21:02 40.5 °F /  4.7 °C 33.2 °F /  0.7 °C 29.83 in /  1010 hPa North 7.1 mph /  11.4 km/h 11.5 mph /  18.5 km/h 75 % 0.00 in /  0 mm
21:07 40.4 °F /  4.7 °C 33.1 °F /  0.6 °C 29.82 in /  1009.7 hPa North 5.8 mph /  9.3 km/h 11.5 mph /  18.5 km/h 75 % 0.00 in /  0 mm
21:12 40.3 °F /  4.6 °C 33.0 °F /  0.6 °C 29.83 in /  1010 hPa NNW 7.3 mph /  11.7 km/h 12.7 mph /  20.4 km/h 75 % 0.00 in /  0 mm
21:17 40.3 °F /  4.6 °C 33.3 °F /  0.7 °C 29.82 in /  1009.7 hPa NNE 8.9 mph /  14.3 km/h 15.0 mph /  24.1 km/h 76 % 0.00 in /  0 mm
21:22 40.2 °F /  4.6 °C 33.2 °F /  0.7 °C 29.83 in /  1010 hPa North 8.3 mph /  13.4 km/h 15.0 mph /  24.1 km/h 76 % 0.00 in /  0 mm
21:27 40.2 °F /  4.6 °C 33.2 °F /  0.7 °C 29.83 in /  1010 hPa NNE 9.4 mph /  15.1 km/h 15.0 mph /  24.1 km/h 76 % 0.00 in /  0 mm
21:32 40.2 °F /  4.6 °C 33.2 °F /  0.7 °C 29.83 in /  1010 hPa North 6.2 mph /  10 km/h 9.2 mph /  14.8 km/h 76 % 0.00 in /  0 mm
21:37 40.2 °F /  4.6 °C 33.2 °F /  0.7 °C 29.82 in /  1009.7 hPa NNE 8.3 mph /  13.4 km/h 13.8 mph /  22.2 km/h 76 % 0.00 in /  0 mm
21:42 40.2 °F /  4.6 °C 33.2 °F /  0.7 °C 29.82 in /  1009.7 hPa NE 6.9 mph /  11.1 km/h 11.5 mph /  18.5 km/h 76 % 0.00 in /  0 mm
21:47 40.2 °F /  4.6 °C 33.6 °F /  0.9 °C 29.82 in /  1009.7 hPa North 7.7 mph /  12.4 km/h 11.5 mph /  18.5 km/h 77 % 0.00 in /  0 mm
21:52 40.1 °F /  4.5 °C 33.1 °F /  0.6 °C 29.82 in /  1009.7 hPa North 8.0 mph /  12.9 km/h 11.5 mph /  18.5 km/h 76 % 0.00 in /  0 mm
21:57 40.2 °F /  4.6 °C 33.2 °F /  0.7 °C 29.82 in /  1009.7 hPa NNE 8.8 mph /  14.2 km/h 14.0 mph /  22.5 km/h 76 % 0.00 in /  0 mm
22:02 40.2 °F /  4.6 °C 33.2 °F /  0.7 °C 29.82 in /  1009.7 hPa North 8.9 mph /  14.3 km/h 17.3 mph /  27.8 km/h 76 % 0.00 in /  0 mm
22:07 40.2 °F /  4.6 °C 33.2 °F /  0.7 °C 29.82 in /  1009.7 hPa North 8.4 mph /  13.5 km/h 12.7 mph /  20.4 km/h 76 % 0.00 in /  0 mm
22:12 40.2 °F /  4.6 °C 33.2 °F /  0.7 °C 29.82 in /  1009.7 hPa NE 7.5 mph /  12.1 km/h 13.0 mph /  20.9 km/h 76 % 0.00 in /  0 mm
22:17 40.2 °F /  4.6 °C 33.2 °F /  0.7 °C 29.82 in /  1009.7 hPa NNE 6.5 mph /  10.5 km/h 11.5 mph /  18.5 km/h 76 % 0.00 in /  0 mm
22:23 40.1 °F /  4.5 °C 33.5 °F /  0.8 °C 29.82 in /  1009.7 hPa North 6.6 mph /  10.6 km/h 10.4 mph /  16.7 km/h 77 % 0.00 in /  0 mm
22:28 40.1 °F /  4.5 °C 33.5 °F /  0.8 °C 29.82 in /  1009.7 hPa North 8.3 mph /  13.4 km/h 10.4 mph /  16.7 km/h 77 % 0.00 in /  0 mm
22:33 40.1 °F /  4.5 °C 33.5 °F /  0.8 °C 29.82 in /  1009.7 hPa NNE 6.0 mph /  9.7 km/h 9.2 mph /  14.8 km/h 77 % 0.00 in /  0 mm
22:38 40.0 °F /  4.4 °C 33.4 °F /  0.8 °C 29.82 in /  1009.7 hPa North 7.4 mph /  11.9 km/h 12.0 mph /  19.3 km/h 77 % 0.00 in /  0 mm
22:43 40.0 °F /  4.4 °C 33.7 °F /  0.9 °C 29.82 in /  1009.7 hPa NNE 5.9 mph /  9.5 km/h 10.4 mph /  16.7 km/h 78 % 0.00 in /  0 mm
22:48 40.0 °F /  4.4 °C 33.7 °F /  0.9 °C 29.83 in /  1010 hPa NNE 8.0 mph /  12.9 km/h 12.7 mph /  20.4 km/h 78 % 0.00 in /  0 mm
22:53 40.0 °F /  4.4 °C 33.7 °F /  0.9 °C 29.82 in /  1009.7 hPa North 8.0 mph /  12.9 km/h 12.7 mph /  20.4 km/h 78 % 0.00 in /  0 mm
22:58 40.0 °F /  4.4 °C 33.7 °F /  0.9 °C 29.82 in /  1009.7 hPa NNE 7.4 mph /  11.9 km/h 11.5 mph /  18.5 km/h 78 % 0.00 in /  0 mm
23:03 40.0 °F /  4.4 °C 33.7 °F /  0.9 °C 29.82 in /  1009.7 hPa North 6.4 mph /  10.3 km/h 12.7 mph /  20.4 km/h 78 % 0.00 in /  0 mm
23:08 40.0 °F /  4.4 °C 33.4 °F /  0.8 °C 29.82 in /  1009.7 hPa NNE 6.8 mph /  10.9 km/h 11.5 mph /  18.5 km/h 77 % 0.00 in /  0 mm
23:13 40.0 °F /  4.4 °C 33.4 °F /  0.8 °C 29.83 in /  1010 hPa North 6.9 mph /  11.1 km/h 10.4 mph /  16.7 km/h 77 % 0.00 in /  0 mm
23:18 40.0 °F /  4.4 °C 33.4 °F /  0.8 °C 29.83 in /  1010 hPa North 6.8 mph /  10.9 km/h 13.8 mph /  22.2 km/h 77 % 0.00 in /  0 mm
23:23 40.0 °F /  4.4 °C 33.7 °F /  0.9 °C 29.82 in /  1009.7 hPa NNE 7.7 mph /  12.4 km/h 13.8 mph /  22.2 km/h 78 % 0.00 in /  0 mm
23:28 40.0 °F /  4.4 °C 33.7 °F /  0.9 °C 29.82 in /  1009.7 hPa North 7.2 mph /  11.6 km/h 11.5 mph /  18.5 km/h 78 % 0.00 in /  0 mm
23:33 40.0 °F /  4.4 °C 33.7 °F /  0.9 °C 29.83 in /  1010 hPa NNE 8.1 mph /  13 km/h 12.0 mph /  19.3 km/h 78 % 0.00 in /  0 mm
23:38 40.0 °F /  4.4 °C 33.7 °F /  0.9 °C 29.83 in /  1010 hPa NNE 6.9 mph /  11.1 km/h 10.4 mph /  16.7 km/h 78 % 0.00 in /  0 mm
23:44 40.0 °F /  4.4 °C 33.7 °F /  0.9 °C 29.83 in /  1010 hPa NNE 5.5 mph /  8.9 km/h 13.8 mph /  22.2 km/h 78 % 0.00 in /  0 mm
23:49 40.0 °F /  4.4 °C 33.7 °F /  0.9 °C 29.83 in /  1010 hPa NNE 6.3 mph /  10.1 km/h 13.8 mph /  22.2 km/h 78 % 0.00 in /  0 mm
23:54 40.0 °F /  4.4 °C 33.7 °F /  0.9 °C 29.82 in /  1009.7 hPa NNW 7.4 mph /  11.9 km/h 10.4 mph /  16.7 km/h 78 % 0.00 in /  0 mm
23:59 40.0 °F /  4.4 °C 33.7 °F /  0.9 °C 29.82 in /  1009.7 hPa NNE 7.8 mph /  12.6 km/h 16.1 mph /  25.9 km/h 78 % 0.00 in /  0 mm
Crab Meadow Weather
Compliments of Weather Underground - 3 mb

Script developed by  Jim McMurry - jmcmurry@mwt.net Adapted for the template by  Wim van der Kuil - Leuven-Template.eu

Weather Terms: Dew Point - A measure of atmospheric moisture. It is the temperature to which air must be cooled in order to reach saturation (assuming pressure and moisture content are constant).